createdAt,value
2023-01-30T00:02:01.398Z,101289.28
2023-01-30T00:04:29.529Z,101272.50
2023-01-30T00:06:57.584Z,101269.34
2023-01-30T00:09:25.542Z,101270.09
2023-01-30T00:11:53.609Z,101273.41
2023-01-30T00:14:22.970Z,101267.84
2023-01-30T00:16:50.891Z,101217.47
2023-01-30T00:19:18.884Z,101226.63
2023-01-30T00:21:46.959Z,101218.84
2023-01-30T00:24:15.449Z,101205.97
2023-01-30T00:26:43.622Z,101204.84
2023-01-30T00:29:11.687Z,101191.69
2023-01-30T00:31:41.190Z,101189.41
2023-01-30T00:34:09.407Z,101214.16
2023-01-30T00:36:37.296Z,101190.13
2023-01-30T00:39:05.348Z,101180.13
2023-01-30T00:41:48.040Z,101196.19
2023-01-30T00:44:49.305Z,101177.44
2023-01-30T00:47:18.759Z,101180.47
2023-01-30T00:49:46.667Z,101171.22
2023-01-30T00:52:14.771Z,101180.13
2023-01-30T00:54:42.953Z,101172.13
2023-01-30T00:57:10.950Z,101170.66
2023-01-30T00:59:38.878Z,101172.75
2023-01-30T01:02:06.873Z,101167.00
2023-01-30T01:04:43.295Z,101163.53
2023-01-30T01:07:13.185Z,101160.81
2023-01-30T01:09:41.292Z,101156.97
2023-01-30T01:12:09.975Z,101161.88
2023-01-30T01:14:38.140Z,101157.66
2023-01-30T01:17:06.670Z,101140.22
2023-01-30T01:19:36.511Z,101143.78
2023-01-30T01:22:04.663Z,101140.22
2023-01-30T01:24:34.483Z,101140.25
2023-01-30T01:27:02.601Z,101151.91
2023-01-30T01:29:30.632Z,101140.09
2023-01-30T01:31:59.302Z,101141.78
2023-01-30T01:34:27.385Z,101143.97
2023-01-30T01:36:56.779Z,101143.84
2023-01-30T01:39:45.390Z,101127.00
2023-01-30T01:42:13.037Z,101120.28
2023-01-30T01:45:01.843Z,101123.81
2023-01-30T01:47:29.984Z,101129.13
2023-01-30T01:49:58.203Z,101105.53
2023-01-30T01:52:27.996Z,101115.78
2023-01-30T01:55:00.846Z,101113.19
2023-01-30T01:57:33.946Z,101119.47
2023-01-30T02:00:06.495Z,101130.78
2023-01-30T02:02:43.439Z,101098.00
2023-01-30T02:05:14.111Z,101091.19
2023-01-30T02:07:49.304Z,101111.78
2023-01-30T02:10:20.292Z,101100.84
2023-01-30T02:12:49.967Z,101134.56
2023-01-30T02:15:19.862Z,101129.38
2023-01-30T02:17:48.421Z,101106.09
2023-01-30T02:20:26.326Z,101099.28
2023-01-30T02:23:45.004Z,101099.63
2023-01-30T02:26:55.577Z,101097.19
2023-01-30T02:30:17.060Z,101096.25
2023-01-30T02:32:53.177Z,101118.56
2023-01-30T02:35:30.959Z,101079.13
2023-01-30T02:38:16.668Z,101095.44
2023-01-30T02:41:00.931Z,101085.22
2023-01-30T02:43:39.001Z,101072.97
2023-01-30T02:46:13.213Z,101075.09
2023-01-30T02:48:47.995Z,101054.25
2023-01-30T02:51:20.263Z,101086.50
2023-01-30T02:53:49.491Z,101077.22
2023-01-30T02:56:18.639Z,101069.78
2023-01-30T02:58:51.469Z,101077.50
2023-01-30T03:01:41.845Z,101056.97
2023-01-30T03:04:32.153Z,101073.28
2023-01-30T03:07:19.275Z,101053.72
2023-01-30T03:09:55.271Z,101046.28
2023-01-30T03:12:37.940Z,101051.22
2023-01-30T03:15:13.388Z,101071.97
2023-01-30T03:17:46.439Z,101064.72
2023-01-30T03:20:20.970Z,101058.59
2023-01-30T03:22:49.415Z,101050.88
2023-01-30T03:25:21.909Z,101055.31
2023-01-30T03:27:52.332Z,101058.63
2023-01-30T03:30:20.733Z,101065.28
2023-01-30T03:32:50.236Z,101076.16
2023-01-30T03:35:20.139Z,101073.38
2023-01-30T03:37:48.792Z,101068.44
2023-01-30T03:40:18.294Z,101076.81
2023-01-30T03:42:47.389Z,101078.09
2023-01-30T03:45:16.457Z,101084.69
2023-01-30T03:47:45.443Z,101077.34
2023-01-30T03:50:13.889Z,101074.41
2023-01-30T03:52:43.273Z,101076.75
2023-01-30T03:55:16.185Z,101089.66
2023-01-30T03:57:44.629Z,101074.66
2023-01-30T04:00:13.705Z,101082.44
2023-01-30T04:02:44.736Z,101079.16
2023-01-30T04:05:16.659Z,101097.19
2023-01-30T04:07:52.400Z,101090.63
2023-01-30T04:10:20.863Z,101094.47
2023-01-30T04:12:49.038Z,101082.25
2023-01-30T04:15:18.483Z,101083.13
2023-01-30T04:18:10.095Z,101076.78
2023-01-30T04:20:49.056Z,101094.78
2023-01-30T04:23:22.868Z,101092.31
2023-01-30T04:25:51.965Z,101097.22
2023-01-30T04:28:22.523Z,101084.78
2023-01-30T04:30:50.622Z,101094.78
2023-01-30T04:33:40.239Z,101088.63
2023-01-30T04:36:10.810Z,101095.41
2023-01-30T04:38:40.297Z,101097.06
2023-01-30T04:41:08.796Z,101098.06
2023-01-30T04:43:40.633Z,101096.00
2023-01-30T04:46:37.653Z,101097.53
2023-01-30T04:49:05.521Z,101096.00
2023-01-30T04:51:33.916Z,101105.97
2023-01-30T04:54:03.980Z,101111.06
2023-01-30T04:56:32.665Z,101108.06
2023-01-30T04:59:00.818Z,101108.22
2023-01-30T05:01:36.410Z,101124.19
2023-01-30T05:04:05.520Z,101111.56
2023-01-30T05:06:34.881Z,101099.00
2023-01-30T05:09:05.299Z,101101.78
2023-01-30T05:11:34.440Z,101099.00
2023-01-30T05:14:03.026Z,101096.78
2023-01-30T05:16:31.493Z,101112.09
2023-01-30T05:18:59.730Z,101112.38
2023-01-30T05:21:28.923Z,101115.09
2023-01-30T05:23:58.316Z,101109.03
2023-01-30T05:26:27.921Z,101101.34
2023-01-30T05:28:58.240Z,101109.16
2023-01-30T05:31:26.895Z,101115.53
2023-01-30T05:33:55.902Z,101117.06
2023-01-30T05:36:24.839Z,101104.44
2023-01-30T05:38:53.129Z,101102.88
2023-01-30T05:41:21.419Z,101110.88
2023-01-30T05:43:54.202Z,101099.78
2023-01-30T05:46:22.538Z,101107.69
2023-01-30T05:48:50.805Z,101106.38
2023-01-30T05:51:20.787Z,101106.88
2023-01-30T05:53:49.431Z,101111.50
2023-01-30T05:56:18.405Z,101089.09
2023-01-30T05:58:52.027Z,101099.13
2023-01-30T06:01:23.254Z,101101.72
2023-01-30T06:03:51.599Z,101097.84
2023-01-30T06:06:20.521Z,101099.13
2023-01-30T06:08:49.325Z,101102.22
2023-01-30T06:11:18.748Z,101089.06
2023-01-30T06:13:46.898Z,101106.72
2023-01-30T06:16:17.339Z,101099.13
2023-01-30T06:18:48.291Z,101097.66
2023-01-30T06:21:17.232Z,101097.84
2023-01-30T06:23:46.345Z,101105.78
2023-01-30T06:26:14.746Z,101095.69
2023-01-30T06:28:42.989Z,101088.97
2023-01-30T06:31:11.782Z,101093.19
2023-01-30T06:33:39.837Z,101096.94
2023-01-30T06:36:10.275Z,101112.38
2023-01-30T06:38:38.445Z,101097.81
2023-01-30T06:41:07.417Z,101107.78
2023-01-30T06:43:35.497Z,101099.06
2023-01-30T06:46:03.713Z,101104.63
2023-01-30T06:48:31.869Z,101102.41
2023-01-30T06:51:00.359Z,101099.63
2023-01-30T06:53:31.219Z,101123.97
2023-01-30T06:56:00.206Z,101121.59
2023-01-30T06:58:28.724Z,101125.81
2023-01-30T07:00:57.500Z,101113.94
2023-01-30T07:03:27.307Z,101136.31
2023-01-30T07:05:56.249Z,101129.53
2023-01-30T07:08:24.488Z,101125.38
2023-01-30T07:10:54.243Z,101130.78
2023-01-30T07:13:23.049Z,101149.41
2023-01-30T07:15:51.896Z,101136.69
2023-01-30T07:18:20.923Z,101133.44
2023-01-30T07:20:49.648Z,101140.75
2023-01-30T07:23:18.920Z,101135.13
2023-01-30T07:25:47.509Z,101132.38
2023-01-30T07:28:16.831Z,101149.34
2023-01-30T07:30:45.065Z,101161.69
2023-01-30T07:33:13.202Z,101147.34
2023-01-30T07:35:41.282Z,101149.03
2023-01-30T07:38:09.522Z,101148.59
2023-01-30T07:40:38.483Z,101152.91
2023-01-30T07:43:08.580Z,101151.22
2023-01-30T07:45:41.536Z,101177.50
2023-01-30T07:48:11.322Z,101154.34
2023-01-30T07:50:39.664Z,101158.13
2023-01-30T07:53:09.465Z,101152.03
2023-01-30T07:55:38.368Z,101142.47
2023-01-30T07:58:06.541Z,101143.19
2023-01-30T08:00:35.375Z,101145.56
2023-01-30T08:03:05.424Z,101150.72
2023-01-30T08:05:34.318Z,101157.25
2023-01-30T08:08:02.506Z,101154.44
2023-01-30T08:10:30.787Z,101153.56
2023-01-30T08:12:58.854Z,101166.19
2023-01-30T08:15:27.234Z,101154.59
2023-01-30T08:17:56.603Z,101181.28
2023-01-30T08:20:27.535Z,101155.75
2023-01-30T08:22:56.333Z,101197.66
2023-01-30T08:25:24.983Z,101163.84
2023-01-30T08:27:53.914Z,101154.28
2023-01-30T08:30:24.065Z,101151.97
2023-01-30T08:32:52.156Z,101157.47
2023-01-30T08:35:21.103Z,101159.28
2023-01-30T08:37:51.269Z,101150.78
2023-01-30T08:40:20.390Z,101150.44
2023-01-30T08:42:48.717Z,101142.59
2023-01-30T08:45:17.301Z,101127.00
2023-01-30T08:47:45.472Z,101135.03
2023-01-30T08:50:13.773Z,101138.38
2023-01-30T08:52:42.078Z,101143.06
2023-01-30T08:55:13.046Z,101160.22
2023-01-30T08:57:41.425Z,101142.53
2023-01-30T09:00:11.889Z,101148.47
2023-01-30T09:02:40.604Z,101162.66
2023-01-30T09:05:11.168Z,101164.56
2023-01-30T09:07:39.672Z,101155.91
2023-01-30T09:10:08.246Z,101146.97
2023-01-30T09:12:37.656Z,101151.38
2023-01-30T09:15:07.353Z,101162.69
2023-01-30T09:17:35.518Z,101143.78
2023-01-30T09:20:04.527Z,101141.53
2023-01-30T09:22:32.797Z,101138.84
2023-01-30T09:25:01.062Z,101154.22
2023-01-30T09:27:29.256Z,101127.69
2023-01-30T09:29:58.849Z,101128.00
2023-01-30T09:32:27.336Z,101145.56
2023-01-30T09:34:55.410Z,101137.66
2023-01-30T09:37:23.610Z,101164.31
2023-01-30T09:39:51.927Z,101138.75
2023-01-30T09:43:03.129Z,101153.97
2023-01-30T09:45:54.667Z,101157.63
2023-01-30T09:48:31.096Z,101174.88
2023-01-30T09:51:31.567Z,101153.63
2023-01-30T09:54:24.442Z,101160.63
2023-01-30T09:57:02.771Z,101181.28
2023-01-30T09:59:38.488Z,101180.59
2023-01-30T10:02:25.258Z,101181.91
2023-01-30T10:05:01.794Z,101177.28
2023-01-30T10:07:45.576Z,101187.94
2023-01-30T10:10:22.731Z,101180.13
2023-01-30T10:13:04.376Z,101213.28
2023-01-30T10:15:48.757Z,101203.31
2023-01-30T10:18:31.677Z,101204.28
2023-01-30T10:21:11.373Z,101184.75
2023-01-30T10:24:00.801Z,101224.72
2023-01-30T10:26:31.001Z,101257.34
2023-01-30T10:29:07.771Z,101229.66
2023-01-30T10:31:44.081Z,101254.47
2023-01-30T10:34:18.382Z,101236.31
2023-01-30T10:36:56.001Z,101238.66
2023-01-30T10:39:33.497Z,101250.63
2023-01-30T10:42:11.979Z,101244.63
2023-01-30T10:44:42.970Z,101242.31
2023-01-30T10:47:46.295Z,101233.59
2023-01-30T10:50:19.459Z,101236.94
2023-01-30T10:52:58.466Z,101242.06
2023-01-30T10:55:37.622Z,101234.53
2023-01-30T10:58:19.304Z,101238.72
2023-01-30T11:00:56.337Z,101238.84
2023-01-30T11:03:35.209Z,101249.66
2023-01-30T11:06:09.042Z,101252.84
2023-01-30T11:08:38.779Z,101239.72
2023-01-30T11:11:27.289Z,101239.41
2023-01-30T11:14:04.427Z,101231.72
2023-01-30T11:16:34.475Z,101216.38
2023-01-30T11:19:22.737Z,101242.16
2023-01-30T11:21:53.206Z,101287.28
2023-01-30T11:24:26.198Z,101288.78
2023-01-30T11:26:54.503Z,101261.16
2023-01-30T11:29:28.941Z,101275.53
2023-01-30T11:31:58.355Z,101278.19
2023-01-30T11:34:26.515Z,101265.97
2023-01-30T11:36:54.694Z,101290.91
2023-01-30T11:39:30.200Z,101300.91
2023-01-30T11:42:01.951Z,101326.06
2023-01-30T11:44:36.407Z,101318.25
2023-01-30T11:47:10.036Z,101330.19
2023-01-30T11:49:48.296Z,101323.25
2023-01-30T11:52:26.348Z,101345.59
2023-01-30T11:55:05.962Z,101348.16
2023-01-30T11:57:42.996Z,101325.03
2023-01-30T12:00:20.858Z,101335.56
2023-01-30T12:02:51.221Z,101346.13
2023-01-30T12:05:26.948Z,101337.94
2023-01-30T12:07:55.346Z,101339.59
2023-01-30T12:10:33.701Z,101372.50
2023-01-30T12:13:13.859Z,101342.16
2023-01-30T12:15:45.542Z,101346.34
2023-01-30T12:18:19.604Z,101350.44
2023-01-30T12:20:54.060Z,101352.84
2023-01-30T12:23:32.050Z,101345.84
2023-01-30T12:26:08.738Z,101342.22
2023-01-30T12:28:43.977Z,101371.41
2023-01-30T12:31:17.579Z,101336.44
2023-01-30T12:33:45.777Z,101359.44
2023-01-30T12:36:24.750Z,101348.81
2023-01-30T12:39:02.616Z,101355.09
2023-01-30T12:41:43.723Z,101343.94
2023-01-30T12:44:29.677Z,101371.69
2023-01-30T12:47:17.033Z,101379.88
2023-01-30T12:49:58.831Z,101417.75
2023-01-30T12:52:52.146Z,101368.66
2023-01-30T12:55:27.521Z,101383.50
2023-01-30T12:58:04.277Z,101408.16
2023-01-30T13:00:46.586Z,101372.56
2023-01-30T13:03:26.880Z,101368.03
2023-01-30T13:06:09.095Z,101398.97
2023-01-30T13:08:55.291Z,101406.16
2023-01-30T13:11:42.177Z,101442.22
2023-01-30T13:14:20.717Z,101392.22
2023-01-30T13:17:15.560Z,101384.97
2023-01-30T13:19:50.072Z,101396.50
2023-01-30T13:22:25.266Z,101406.91
2023-01-30T13:25:02.010Z,101416.38
2023-01-30T13:27:35.664Z,101427.91
2023-01-30T13:30:05.914Z,101429.84
2023-01-30T13:32:41.731Z,101420.59
2023-01-30T13:35:18.403Z,101437.97
2023-01-30T13:37:50.019Z,101416.25
2023-01-30T13:40:21.200Z,101452.84
2023-01-30T13:42:55.322Z,101440.44
2023-01-30T13:45:28.211Z,101441.03
2023-01-30T13:48:15.043Z,101460.06
2023-01-30T13:50:59.694Z,101445.97
2023-01-30T13:53:34.577Z,101456.69
2023-01-30T13:56:16.273Z,101479.44
2023-01-30T13:59:01.319Z,101489.88
2023-01-30T14:02:03.039Z,101479.44
2023-01-30T14:04:50.611Z,101480.84
2023-01-30T14:07:24.174Z,101497.38
2023-01-30T14:10:04.734Z,101512.78
2023-01-30T14:12:37.705Z,101504.72
2023-01-30T14:15:20.808Z,101546.84
2023-01-30T14:18:00.619Z,101539.69
2023-01-30T14:20:31.546Z,101523.75
2023-01-30T14:23:01.796Z,101525.59
2023-01-30T14:25:46.229Z,101545.41
2023-01-30T14:28:51.021Z,101551.47
2023-01-30T14:31:52.846Z,101555.28
2023-01-30T14:34:51.243Z,101571.59
2023-01-30T14:37:46.303Z,101544.53
2023-01-30T14:40:38.832Z,101566.50
2023-01-30T14:43:40.709Z,101589.03
2023-01-30T14:46:42.096Z,101578.00
2023-01-30T14:49:31.037Z,101588.50
2023-01-30T14:52:00.027Z,101606.78
2023-01-30T14:54:51.485Z,101607.16
2023-01-30T14:57:23.815Z,101608.97
2023-01-30T15:00:14.336Z,101616.19
2023-01-30T15:02:44.994Z,101645.66
2023-01-30T15:05:18.744Z,101645.94
2023-01-30T15:07:50.483Z,101652.19
2023-01-30T15:10:44.204Z,101657.16
2023-01-30T15:13:33.437Z,101652.50
2023-01-30T15:16:15.300Z,101664.41
2023-01-30T15:19:11.645Z,101671.06
2023-01-30T15:21:59.352Z,101672.19
2023-01-30T15:25:01.564Z,101668.47
2023-01-30T15:27:36.888Z,101684.59
2023-01-30T15:30:20.378Z,101682.75
2023-01-30T15:32:48.714Z,101679.97
2023-01-30T15:35:28.378Z,101688.81
2023-01-30T15:37:57.978Z,101690.91
2023-01-30T15:40:28.489Z,101701.84
2023-01-30T15:43:14.233Z,101713.19
2023-01-30T15:45:56.571Z,101712.38
2023-01-30T15:48:52.051Z,101731.06
2023-01-30T15:51:27.451Z,101735.38
2023-01-30T15:53:58.266Z,101739.56
2023-01-30T15:56:28.739Z,101747.25
2023-01-30T15:59:00.953Z,101742.59
2023-01-30T16:01:29.797Z,101749.03
2023-01-30T16:04:00.383Z,101745.44
2023-01-30T16:06:32.653Z,101762.34
2023-01-30T16:09:03.073Z,101769.13
2023-01-30T16:11:39.741Z,101765.06
2023-01-30T16:14:13.867Z,101781.06
2023-01-30T16:16:46.234Z,101791.56
2023-01-30T16:19:26.548Z,101782.81
2023-01-30T16:21:58.027Z,101783.44
2023-01-30T16:24:29.920Z,101790.19
2023-01-30T16:27:02.495Z,101786.75
2023-01-30T16:29:34.361Z,101801.53
2023-01-30T16:32:03.366Z,101798.09
2023-01-30T16:34:35.249Z,101811.75
2023-01-30T16:37:08.719Z,101814.38
2023-01-30T16:39:37.747Z,101826.78
2023-01-30T16:42:23.605Z,101835.88
2023-01-30T16:45:00.183Z,101839.47
2023-01-30T16:47:31.470Z,101835.50
2023-01-30T16:49:59.716Z,101859.72
2023-01-30T16:52:34.771Z,101864.66
2023-01-30T16:55:06.346Z,101873.75
2023-01-30T16:57:40.450Z,101883.22
2023-01-30T17:00:22.826Z,101887.00
2023-01-30T17:02:53.680Z,101900.06
2023-01-30T17:05:24.518Z,101895.13
2023-01-30T17:07:54.196Z,101895.56
2023-01-30T17:10:56.276Z,101896.72
2023-01-30T17:13:37.713Z,101898.03
2023-01-30T17:16:28.576Z,101919.13
2023-01-30T17:18:58.227Z,101912.97
2023-01-30T17:21:30.418Z,101925.31
2023-01-30T17:24:02.712Z,101918.41
2023-01-30T17:26:32.281Z,101912.88
2023-01-30T17:29:00.763Z,101923.97
2023-01-30T17:31:30.353Z,101924.50
2023-01-30T17:33:58.340Z,101930.59
2023-01-30T17:36:28.592Z,101926.69
2023-01-30T17:38:58.482Z,101942.53
2023-01-30T17:41:28.613Z,101949.31
2023-01-30T17:43:56.747Z,101938.63
2023-01-30T17:46:32.411Z,101943.09
2023-01-30T17:49:02.173Z,101951.47
2023-01-30T17:51:30.360Z,101942.59
2023-01-30T17:53:58.477Z,101952.66
2023-01-30T17:56:32.401Z,101955.22
2023-01-30T17:59:00.461Z,101959.34
2023-01-30T18:01:28.662Z,101964.63
2023-01-30T18:03:56.745Z,101963.50
2023-01-30T18:06:27.263Z,101977.41
2023-01-30T18:08:55.398Z,101977.91
2023-01-30T18:11:23.923Z,101976.47
2023-01-30T18:13:52.123Z,101977.34
2023-01-30T18:16:24.685Z,101985.03
2023-01-30T18:18:52.777Z,101993.31
2023-01-30T18:21:22.281Z,101998.63
2023-01-30T18:23:51.969Z,102008.31
2023-01-30T18:26:20.463Z,102011.03
2023-01-30T18:28:49.266Z,101994.88
2023-01-30T18:31:18.597Z,101996.31
2023-01-30T18:33:47.338Z,101996.94
2023-01-30T18:36:17.450Z,102002.28
2023-01-30T18:38:45.923Z,102009.38
2023-01-30T18:41:17.332Z,102002.44
2023-01-30T18:43:48.447Z,102022.03
2023-01-30T18:46:18.508Z,102018.22
2023-01-30T18:48:47.777Z,102020.94
2023-01-30T18:51:17.049Z,102035.22
2023-01-30T18:53:45.064Z,102033.19
2023-01-30T18:56:18.006Z,102044.41
2023-01-30T18:58:46.465Z,102033.09
2023-01-30T19:01:16.621Z,102026.72
2023-01-30T19:03:45.137Z,102043.34
2023-01-30T19:06:16.480Z,102048.47
2023-01-30T19:08:45.064Z,102046.06
2023-01-30T19:11:33.363Z,102059.59
2023-01-30T19:14:01.513Z,102066.72
2023-01-30T19:16:32.224Z,102053.81
2023-01-30T19:19:01.130Z,102057.72
2023-01-30T19:21:29.783Z,102053.75
2023-01-30T19:23:58.132Z,102050.06
2023-01-30T19:26:29.602Z,102066.09
2023-01-30T19:28:57.650Z,102066.28
2023-01-30T19:31:25.839Z,102072.78
2023-01-30T19:34:00.705Z,102059.63
2023-01-30T19:36:31.718Z,102062.63
2023-01-30T19:39:00.520Z,102060.84
2023-01-30T19:41:32.198Z,102057.00
2023-01-30T19:44:04.349Z,102065.34
2023-01-30T19:46:33.982Z,102063.94
2023-01-30T19:49:03.482Z,102064.16
2023-01-30T19:51:33.752Z,102070.72
2023-01-30T19:54:04.491Z,102079.50
2023-01-30T19:56:34.735Z,102073.53
2023-01-30T19:59:04.056Z,102075.59
2023-01-30T20:01:35.953Z,102083.16
2023-01-30T20:04:05.365Z,102100.28
2023-01-30T20:06:35.635Z,102098.13
2023-01-30T20:09:06.436Z,102097.25
2023-01-30T20:11:37.883Z,102106.72
2023-01-30T20:14:07.215Z,102111.84
2023-01-30T20:16:36.559Z,102110.53
2023-01-30T20:19:07.720Z,102104.22
2023-01-30T20:21:37.362Z,102103.50
2023-01-30T20:24:06.860Z,102108.31
2023-01-30T20:26:39.757Z,102116.22
2023-01-30T20:29:10.424Z,102111.50
2023-01-30T20:31:39.631Z,102108.56
2023-01-30T20:34:09.692Z,102112.59
2023-01-30T20:36:37.823Z,102116.63
2023-01-30T20:39:07.589Z,102112.69
2023-01-30T20:41:38.841Z,102106.53
2023-01-30T20:44:08.537Z,102123.72
2023-01-30T20:46:41.345Z,102118.78
2023-01-30T20:49:13.684Z,102120.06
2023-01-30T20:51:42.029Z,102111.06
2023-01-30T20:54:12.305Z,102125.69
2023-01-30T20:56:43.757Z,102121.78
2023-01-30T20:59:13.533Z,102122.22
2023-01-30T21:01:42.459Z,102125.50
2023-01-30T21:04:13.518Z,102114.56
2023-01-30T21:06:45.723Z,102120.47
2023-01-30T21:09:17.869Z,102113.03
2023-01-30T21:11:48.091Z,102109.53
2023-01-30T21:14:16.780Z,102124.09
2023-01-30T21:16:45.381Z,102116.50
2023-01-30T21:19:16.296Z,102116.59
2023-01-30T21:21:51.140Z,102104.47
2023-01-30T21:24:23.921Z,102102.75
2023-01-30T21:26:54.207Z,102099.31
2023-01-30T21:29:24.803Z,102101.47
2023-01-30T21:31:53.387Z,102103.31
2023-01-30T21:34:21.520Z,102098.63
2023-01-30T21:37:17.789Z,102097.56
2023-01-30T21:40:04.049Z,102092.47
2023-01-30T21:42:51.568Z,102095.75
2023-01-30T21:45:21.353Z,102097.38
2023-01-30T21:47:52.743Z,102093.22
2023-01-30T21:50:21.416Z,102091.31
2023-01-30T21:52:49.511Z,102096.69
2023-01-30T21:55:18.173Z,102096.81
2023-01-30T21:57:47.663Z,102100.38
2023-01-30T22:00:16.083Z,102107.41
2023-01-30T22:02:44.115Z,102089.34
2023-01-30T22:05:12.390Z,102092.38
2023-01-30T22:07:40.456Z,102094.53
2023-01-30T22:10:09.346Z,102103.53
2023-01-30T22:12:40.013Z,102100.16
2023-01-30T22:15:10.740Z,102101.06
2023-01-30T22:17:38.931Z,102101.13
2023-01-30T22:20:09.991Z,102097.38
2023-01-30T22:22:38.622Z,102100.81
2023-01-30T22:25:08.000Z,102112.31
2023-01-30T22:27:36.371Z,102115.84
2023-01-30T22:30:05.449Z,102099.31
2023-01-30T22:32:36.186Z,102116.31
2023-01-30T22:35:07.559Z,102114.00
2023-01-30T22:37:35.960Z,102108.94
2023-01-30T22:40:04.404Z,102115.22
2023-01-30T22:42:32.623Z,102109.25
2023-01-30T22:45:00.548Z,102110.91
2023-01-30T22:47:29.118Z,102099.63
2023-01-30T22:49:58.519Z,102105.81
2023-01-30T22:52:26.461Z,102103.72
2023-01-30T22:54:54.430Z,102108.91
2023-01-30T22:57:22.601Z,102109.88
2023-01-30T22:59:52.001Z,102125.59
2023-01-30T23:02:20.088Z,102129.41
2023-01-30T23:04:49.173Z,102127.31
2023-01-30T23:07:20.834Z,102133.38
2023-01-30T23:09:48.975Z,102126.38
2023-01-30T23:12:34.798Z,102127.19
2023-01-30T23:15:06.103Z,102133.03
2023-01-30T23:17:52.546Z,102131.41
2023-01-30T23:20:20.974Z,102133.59
2023-01-30T23:22:53.319Z,102139.31
2023-01-30T23:25:21.654Z,102142.06
2023-01-30T23:27:50.359Z,102144.34
2023-01-30T23:30:19.311Z,102136.91
2023-01-30T23:32:47.711Z,102136.16
2023-01-30T23:35:15.856Z,102138.78
2023-01-30T23:38:01.152Z,102144.84
2023-01-30T23:40:30.553Z,102140.22
2023-01-30T23:42:58.516Z,102134.69
2023-01-30T23:45:28.527Z,102132.44
2023-01-30T23:47:57.133Z,102134.75
2023-01-30T23:50:25.224Z,102133.97
2023-01-30T23:52:53.369Z,102133.00
2023-01-30T23:55:22.023Z,102123.06
2023-01-30T23:57:51.860Z,102122.50
